createdAt,value
2022-08-27T09:00:26.074Z,21.7
2022-08-27T09:01:29.582Z,23.1
2022-08-27T09:02:32.999Z,23.1
2022-08-27T09:03:36.628Z,23.1
2022-08-27T09:04:39.040Z,23.1
2022-08-27T09:05:42.762Z,23.1
2022-08-27T09:06:45.987Z,23.1
2022-08-27T09:07:48.993Z,23.1
2022-08-27T09:08:52.573Z,23.1
2022-08-27T09:09:55.819Z,23.1
2022-08-27T09:10:59.639Z,23.2
2022-08-27T09:12:02.688Z,23.1
2022-08-27T09:13:05.021Z,23.1
2022-08-27T09:14:14.149Z,23.1
2022-08-27T09:15:17.476Z,23
2022-08-27T09:16:21.588Z,23
2022-08-27T09:17:29.750Z,23
2022-08-27T09:18:33.300Z,22.9
2022-08-27T09:19:38.000Z,22.9
2022-08-27T09:20:43.307Z,22.8
2022-08-27T09:21:46.840Z,22.8
2022-08-27T09:22:50.083Z,22.8
2022-08-27T09:23:53.223Z,22.8
2022-08-27T09:24:56.098Z,22.8
2022-08-27T09:25:59.340Z,22.8
2022-08-27T09:27:01.933Z,22.8
2022-08-27T09:28:04.894Z,22.8
2022-08-27T09:29:08.436Z,22.8
2022-08-27T09:30:11.802Z,22.7
2022-08-27T09:31:16.073Z,22.6
2022-08-27T09:32:19.406Z,22.6
2022-08-27T09:34:25.537Z,22.5
2022-08-27T09:35:28.754Z,22.5
2022-08-27T09:36:31.999Z,22.4
2022-08-27T09:38:38.644Z,22.4
2022-08-27T09:39:40.956Z,22.4
2022-08-27T09:40:44.559Z,22.4
2022-08-27T09:41:47.639Z,22.4
2022-08-27T09:42:51.570Z,22.4
2022-08-27T09:43:54.339Z,22.4
2022-08-27T09:44:57.752Z,22.4
2022-08-27T10:47:53.200Z,21.7
2022-08-27T10:48:56.256Z,22.4
2022-08-27T17:04:35.587Z,21.7
2022-08-27T17:06:14.832Z,21.5
